createdAt,value
2019-02-05T00:00:54.957Z,-0.90
2019-02-05T00:03:24.713Z,-0.90
2019-02-05T00:05:54.343Z,-0.80
2019-02-05T00:08:23.973Z,-0.80
2019-02-05T00:10:53.681Z,-0.80
2019-02-05T00:13:23.363Z,-0.90
2019-02-05T00:15:53.151Z,-0.90
2019-02-05T00:18:22.813Z,-0.90
2019-02-05T00:20:52.465Z,-0.90
2019-02-05T00:23:22.112Z,-0.90
2019-02-05T00:25:52.076Z,-0.90
2019-02-05T00:28:21.806Z,-0.90
2019-02-05T00:30:51.554Z,-0.90
2019-02-05T00:33:21.285Z,-1.00
2019-02-05T00:35:50.873Z,-1.00
2019-02-05T00:38:20.515Z,-1.00
2019-02-05T00:40:50.509Z,-1.00
2019-02-05T00:43:20.330Z,-1.00
2019-02-05T00:45:49.960Z,-1.00
2019-02-05T00:48:19.597Z,-1.10
2019-02-05T00:50:49.202Z,-1.10
2019-02-05T00:53:18.832Z,-1.10
2019-02-05T00:55:48.433Z,-1.10
2019-02-05T00:58:18.101Z,-1.10
2019-02-05T01:00:47.732Z,-1.10
2019-02-05T01:03:17.519Z,-1.10
2019-02-05T01:05:48.094Z,-1.10
2019-02-05T01:08:18.222Z,-1.20
2019-02-05T01:10:47.809Z,-1.20
2019-02-05T01:13:17.454Z,-1.20
2019-02-05T01:15:47.494Z,-1.20
2019-02-05T01:18:17.133Z,-1.30
2019-02-05T01:20:46.740Z,-1.30
2019-02-05T01:23:16.558Z,-1.30
2019-02-05T01:25:46.202Z,-1.40
2019-02-05T01:28:15.866Z,-1.40
2019-02-05T01:30:45.510Z,-1.40
2019-02-05T01:33:15.102Z,-1.40
2019-02-05T01:35:44.744Z,-1.40
2019-02-05T01:38:14.522Z,-1.40
2019-02-05T01:40:44.113Z,-1.40
2019-02-05T01:43:13.711Z,-1.40
2019-02-05T01:45:43.362Z,-1.50
2019-02-05T01:48:12.950Z,-1.40
2019-02-05T01:50:42.738Z,-1.50
2019-02-05T01:53:12.372Z,-1.50
2019-02-05T01:55:42.660Z,-1.50
2019-02-05T01:58:12.399Z,-1.50
2019-02-05T02:00:42.169Z,-1.60
2019-02-05T02:03:11.801Z,-1.60
2019-02-05T02:05:41.975Z,-1.60
2019-02-05T02:08:11.750Z,-1.60
2019-02-05T02:10:41.354Z,-1.60
2019-02-05T02:13:11.048Z,-1.70
2019-02-05T02:15:40.645Z,-1.70
2019-02-05T02:18:10.249Z,-1.70
2019-02-05T02:20:40.258Z,-1.60
2019-02-05T02:23:09.858Z,-1.60
2019-02-05T02:25:40.425Z,-1.60
2019-02-05T02:28:10.029Z,-1.60
2019-02-05T02:30:39.621Z,-1.60
2019-02-05T02:33:09.294Z,-1.60
2019-02-05T02:35:39.231Z,-1.60
2019-02-05T02:38:09.008Z,-1.60
2019-02-05T02:40:38.601Z,-1.60
2019-02-05T02:43:08.250Z,-1.50
2019-02-05T02:45:37.846Z,-1.50
2019-02-05T02:48:07.443Z,-1.50
2019-02-05T02:50:37.862Z,-1.50
2019-02-05T02:53:07.525Z,-1.50
2019-02-05T02:55:37.828Z,-1.50
2019-02-05T02:58:07.585Z,-1.50
2019-02-05T03:00:37.224Z,-1.50
2019-02-05T03:03:06.830Z,-1.50
2019-02-05T03:05:36.613Z,-1.50
2019-02-05T03:08:06.205Z,-1.50
2019-02-05T03:10:35.941Z,-1.50
2019-02-05T03:13:05.591Z,-1.50
2019-02-05T03:15:35.503Z,-1.50
2019-02-05T03:18:05.212Z,-1.50
2019-02-05T03:20:35.983Z,-1.50
2019-02-05T03:23:05.717Z,-1.50
2019-02-05T03:25:35.352Z,-1.40
2019-02-05T03:28:04.954Z,-1.40
2019-02-05T03:30:34.631Z,-1.40
2019-02-05T03:33:05.198Z,-1.40
2019-02-05T03:35:34.885Z,-1.50
2019-02-05T03:38:04.722Z,-1.50
2019-02-05T03:40:40.494Z,-1.50
2019-02-05T03:43:10.158Z,-1.50
2019-02-05T03:45:39.745Z,-1.60
2019-02-05T03:48:09.475Z,-1.70
2019-02-05T03:50:46.827Z,-1.70
2019-02-05T03:53:31.515Z,-1.80
2019-02-05T03:56:15.590Z,-1.90
2019-02-05T03:58:48.866Z,-2.00
2019-02-05T04:01:39.592Z,-2.10
2019-02-05T04:04:31.646Z,-2.10
2019-02-05T04:07:13.597Z,-2.20
2019-02-05T04:10:01.013Z,-2.30
2019-02-05T04:12:37.574Z,-2.40
2019-02-05T04:15:22.172Z,-2.40
2019-02-05T04:17:58.088Z,-2.50
2019-02-05T04:20:31.159Z,-2.50
2019-02-05T04:23:09.558Z,-2.60
2019-02-05T04:26:04.782Z,-2.60
2019-02-05T04:28:43.223Z,-2.70
2019-02-05T04:31:21.681Z,-2.70
2019-02-05T04:34:13.832Z,-2.80
2019-02-05T04:37:07.020Z,-2.80
2019-02-05T04:39:48.638Z,-2.90
2019-02-05T04:42:21.495Z,-2.90
2019-02-05T04:45:03.140Z,-3.00
2019-02-05T04:47:47.742Z,-3.00
2019-02-05T04:50:29.641Z,-3.10
2019-02-05T04:53:08.170Z,-3.10
2019-02-05T04:55:56.122Z,-3.20
2019-02-05T04:58:45.732Z,-3.20
2019-02-05T05:01:24.721Z,-3.20
2019-02-05T05:04:03.180Z,-3.30
2019-02-05T05:06:36.036Z,-3.30
2019-02-05T05:09:26.310Z,-3.40
2019-02-05T05:11:56.031Z,-3.40
2019-02-05T05:14:25.635Z,-3.40
2019-02-05T05:16:55.714Z,-3.50
2019-02-05T05:19:25.430Z,-3.50
2019-02-05T05:21:55.165Z,-3.50
2019-02-05T05:24:24.812Z,-3.60
2019-02-05T05:26:54.417Z,-3.60
2019-02-05T05:29:24.157Z,-3.60
2019-02-05T05:31:53.935Z,-3.60
2019-02-05T05:34:23.881Z,-3.60
2019-02-05T05:36:52.664Z,-3.60
2019-02-05T05:39:22.293Z,-3.60
2019-02-05T05:41:51.897Z,-3.70
2019-02-05T05:44:21.617Z,-3.70
2019-02-05T05:46:51.463Z,-3.70
2019-02-05T05:49:21.540Z,-3.70
2019-02-05T05:51:51.362Z,-3.80
2019-02-05T05:54:21.204Z,-3.80
2019-02-05T05:56:50.845Z,-3.80
2019-02-05T05:59:20.484Z,-3.80
2019-02-05T06:01:50.114Z,-3.90
2019-02-05T06:04:19.768Z,-3.90
2019-02-05T06:06:49.494Z,-3.90
2019-02-05T06:09:19.216Z,-4.00
2019-02-05T06:11:48.841Z,-4.00
2019-02-05T06:14:18.488Z,-4.00
2019-02-05T06:16:48.292Z,-4.10
2019-02-05T06:19:17.941Z,-4.10
2019-02-05T06:21:47.732Z,-4.10
2019-02-05T06:24:17.510Z,-4.10
2019-02-05T06:26:47.323Z,-4.10
2019-02-05T06:29:17.118Z,-4.10
2019-02-05T06:31:46.812Z,-4.10
2019-02-05T06:34:16.924Z,-4.10
2019-02-05T06:36:46.923Z,-4.10
2019-02-05T06:39:16.705Z,-4.10
2019-02-05T06:41:46.501Z,-4.00
2019-02-05T06:44:16.145Z,-4.00
2019-02-05T06:46:45.775Z,-4.00
2019-02-05T06:49:15.422Z,-4.00
2019-02-05T06:51:46.342Z,-4.00
2019-02-05T06:54:15.977Z,-4.00
2019-02-05T06:56:45.716Z,-4.00
2019-02-05T06:59:15.553Z,-4.00
2019-02-05T07:01:45.213Z,-4.00
2019-02-05T07:04:14.945Z,-4.00
2019-02-05T07:06:44.878Z,-4.00
2019-02-05T07:09:14.661Z,-3.90
2019-02-05T07:11:44.330Z,-3.90
2019-02-05T07:14:14.018Z,-3.80
2019-02-05T07:16:43.633Z,-3.80
2019-02-05T07:19:13.431Z,-3.70
2019-02-05T07:21:43.293Z,-3.70
2019-02-05T07:24:12.982Z,-3.70
2019-02-05T07:26:42.784Z,-3.60
2019-02-05T07:29:12.912Z,-3.60
2019-02-05T07:31:42.672Z,-3.60
2019-02-05T07:34:12.325Z,-3.50
2019-02-05T07:36:42.120Z,-3.40
2019-02-05T07:39:12.782Z,-3.40
2019-02-05T07:41:42.517Z,-3.30
2019-02-05T07:44:12.216Z,-3.30
2019-02-05T07:46:41.942Z,-3.20
2019-02-05T07:49:11.761Z,-3.20
2019-02-05T07:51:41.414Z,-3.20
2019-02-05T07:54:11.067Z,-3.10
2019-02-05T07:56:40.806Z,-3.00
2019-02-05T07:59:10.701Z,-3.00
2019-02-05T08:01:41.375Z,-2.90
2019-02-05T08:04:11.328Z,-2.90
2019-02-05T08:06:41.085Z,-2.90
2019-02-05T08:09:10.869Z,-2.90
2019-02-05T08:11:41.524Z,-2.90
2019-02-05T08:14:11.320Z,-2.80
2019-02-05T08:16:41.050Z,-2.80
2019-02-05T08:19:10.728Z,-2.80
2019-02-05T08:21:41.236Z,-2.80
2019-02-05T08:24:11.024Z,-2.70
2019-02-05T08:26:41.682Z,-2.70
2019-02-05T08:29:21.442Z,-2.60
2019-02-05T08:31:43.045Z,-2.50
2019-02-05T08:34:12.807Z,-2.50
2019-02-05T08:36:42.538Z,-2.40
2019-02-05T08:39:12.244Z,-2.30
2019-02-05T08:41:41.936Z,-2.30
2019-02-05T08:44:12.021Z,-2.20
2019-02-05T08:46:41.805Z,-2.10
2019-02-05T08:49:11.475Z,-2.10
2019-02-05T08:51:41.289Z,-2.10
2019-02-05T08:54:10.981Z,-2.10
2019-02-05T08:56:40.639Z,-2.00
2019-02-05T08:59:10.428Z,-2.00
2019-02-05T09:01:40.338Z,-1.90
2019-02-05T09:04:10.022Z,-1.90
2019-02-05T09:06:40.094Z,-1.80
2019-02-05T09:09:09.800Z,-1.70
2019-02-05T09:11:39.434Z,-1.70
2019-02-05T09:14:11.158Z,-1.60
2019-02-05T09:16:40.678Z,-1.60
2019-02-05T09:19:10.425Z,-1.50
2019-02-05T09:21:40.755Z,-1.40
2019-02-05T09:24:10.454Z,-1.30
2019-02-05T09:26:40.110Z,-1.30
2019-02-05T09:29:10.072Z,-1.20
2019-02-05T09:31:41.854Z,-1.10
2019-02-05T09:34:11.523Z,-1.10
2019-02-05T09:36:41.953Z,-1.00
2019-02-05T09:39:11.756Z,-0.90
2019-02-05T09:41:41.497Z,-0.80
2019-02-05T09:44:11.210Z,-0.70
2019-02-05T09:46:40.884Z,-0.60
2019-02-05T09:49:10.709Z,-0.60
2019-02-05T09:51:40.365Z,-0.50
2019-02-05T09:54:10.210Z,-0.40
2019-02-05T09:56:39.954Z,-0.40
2019-02-05T09:59:09.578Z,-0.30
2019-02-05T10:01:39.188Z,-0.20
2019-02-05T10:04:09.519Z,-0.10
2019-02-05T10:06:39.266Z,-0.10
2019-02-05T10:09:09.158Z,-0.20
2019-02-05T10:11:39.504Z,-0.20
2019-02-05T10:14:09.200Z,-0.20
2019-02-05T10:16:38.925Z,-0.30
2019-02-05T10:19:08.918Z,-0.30
2019-02-05T10:21:38.595Z,-0.20
2019-02-05T10:24:09.041Z,-0.20
2019-02-05T10:26:38.675Z,-0.20
2019-02-05T10:29:09.108Z,-0.10
2019-02-05T10:31:38.899Z,0.00
2019-02-05T10:34:08.676Z,0.10
2019-02-05T10:36:38.386Z,0.10
2019-02-05T10:39:09.448Z,0.20
2019-02-05T10:41:39.366Z,0.20
2019-02-05T10:44:09.120Z,0.20
2019-02-05T10:46:38.788Z,0.30
2019-02-05T10:49:09.484Z,0.30
2019-02-05T10:51:39.330Z,0.30
2019-02-05T10:54:09.106Z,0.20
2019-02-05T10:56:38.761Z,0.20
2019-02-05T10:59:08.439Z,0.20
2019-02-05T11:01:38.189Z,0.20
2019-02-05T11:04:08.038Z,0.20
2019-02-05T11:06:38.108Z,0.20
2019-02-05T11:09:08.179Z,0.10
2019-02-05T11:11:37.966Z,0.20
2019-02-05T11:14:07.766Z,0.20
2019-02-05T11:16:37.413Z,0.30
2019-02-05T11:19:07.127Z,0.30
2019-02-05T11:21:37.444Z,0.40
2019-02-05T11:24:07.098Z,0.50
2019-02-05T11:26:36.986Z,0.70
2019-02-05T11:29:06.700Z,0.90
2019-02-05T11:31:36.453Z,1.20
2019-02-05T11:34:06.160Z,1.40
2019-02-05T11:36:35.853Z,1.50
2019-02-05T11:39:09.726Z,1.70
2019-02-05T11:41:40.131Z,1.80
2019-02-05T11:44:10.059Z,1.80
2019-02-05T11:46:39.743Z,1.90
2019-02-05T11:49:10.168Z,1.90
2019-02-05T11:51:40.136Z,1.90
2019-02-05T11:54:09.861Z,2.00
2019-02-05T11:56:39.663Z,2.10
2019-02-05T11:59:09.364Z,2.10
2019-02-05T12:01:39.473Z,2.20
2019-02-05T12:04:09.377Z,2.20
2019-02-05T12:06:39.165Z,2.30
2019-02-05T12:09:15.308Z,2.30
2019-02-05T12:11:45.058Z,2.30
2019-02-05T12:14:14.707Z,2.40
2019-02-05T12:16:44.357Z,2.40
2019-02-05T12:19:14.188Z,2.40
2019-02-05T12:21:43.897Z,2.40
2019-02-05T12:24:13.814Z,2.40
2019-02-05T12:26:43.597Z,2.40
2019-02-05T12:29:13.253Z,2.40
2019-02-05T12:31:43.073Z,2.50
2019-02-05T12:34:12.738Z,2.50
2019-02-05T12:36:42.382Z,2.50
2019-02-05T12:39:16.422Z,2.60
2019-02-05T12:41:46.872Z,2.60
2019-02-05T12:44:16.584Z,2.60
2019-02-05T12:46:46.309Z,2.60
2019-02-05T12:49:16.011Z,2.70
2019-02-05T12:51:45.725Z,2.80
2019-02-05T12:54:15.814Z,2.80
2019-02-05T12:56:45.505Z,2.90
2019-02-05T12:59:15.186Z,3.00
2019-02-05T13:01:44.841Z,3.10
2019-02-05T13:04:14.501Z,3.10
2019-02-05T13:06:44.150Z,3.20
2019-02-05T13:09:15.003Z,3.20
2019-02-05T13:11:44.709Z,3.30
2019-02-05T13:14:14.353Z,3.30
2019-02-05T13:16:44.229Z,3.40
2019-02-05T13:19:13.941Z,3.40
2019-02-05T13:21:43.827Z,3.50
2019-02-05T13:24:16.479Z,3.60
2019-02-05T13:26:44.760Z,3.60
2019-02-05T13:29:14.437Z,3.70
2019-02-05T13:31:44.079Z,3.70
2019-02-05T13:34:13.947Z,3.70
2019-02-05T13:36:44.117Z,3.70
2019-02-05T13:39:13.724Z,3.70
2019-02-05T13:41:43.394Z,3.70
2019-02-05T13:44:13.226Z,3.70
2019-02-05T13:46:43.008Z,3.70
2019-02-05T13:49:12.901Z,3.70
2019-02-05T13:51:42.534Z,3.70
2019-02-05T13:54:12.266Z,3.70
2019-02-05T13:56:41.995Z,3.70
2019-02-05T13:59:11.629Z,3.70
2019-02-05T14:01:44.414Z,3.70
2019-02-05T14:04:12.691Z,3.70
2019-02-05T14:06:42.480Z,3.60
2019-02-05T14:09:12.249Z,3.60
2019-02-05T14:11:41.910Z,3.60
2019-02-05T14:14:11.664Z,3.60
2019-02-05T14:16:41.382Z,3.50
2019-02-05T14:19:11.051Z,3.50
2019-02-05T14:21:40.790Z,3.40
2019-02-05T14:24:10.453Z,3.40
2019-02-05T14:26:41.071Z,3.30
2019-02-05T14:29:10.705Z,3.30
2019-02-05T14:31:40.500Z,3.30
2019-02-05T14:34:10.348Z,3.20
2019-02-05T14:36:39.972Z,3.20
2019-02-05T14:39:10.229Z,3.20
2019-02-05T14:41:39.874Z,3.10
2019-02-05T14:44:09.532Z,3.10
2019-02-05T14:46:39.258Z,3.00
2019-02-05T14:49:09.377Z,3.00
2019-02-05T14:51:42.013Z,2.90
2019-02-05T14:54:11.768Z,2.90
2019-02-05T14:56:41.476Z,2.80
2019-02-05T14:59:11.259Z,2.80
2019-02-05T15:01:43.161Z,2.80
2019-02-05T15:04:12.327Z,2.80
2019-02-05T15:06:42.723Z,2.80
2019-02-05T15:09:12.411Z,2.70
2019-02-05T15:11:42.097Z,2.70
2019-02-05T15:14:11.745Z,2.70
2019-02-05T15:16:41.890Z,2.70
2019-02-05T15:19:11.539Z,2.60
2019-02-05T15:21:41.305Z,2.60
2019-02-05T15:24:11.060Z,2.50
2019-02-05T15:26:41.418Z,2.40
2019-02-05T15:29:11.094Z,2.30
2019-02-05T15:31:40.817Z,2.30
2019-02-05T15:34:13.492Z,2.20
2019-02-05T15:36:43.737Z,2.20
2019-02-05T15:39:13.677Z,2.10
2019-02-05T15:41:43.607Z,2.10
2019-02-05T15:44:13.593Z,2.10
2019-02-05T15:46:43.272Z,2.10
2019-02-05T15:49:13.044Z,2.00
2019-02-05T15:51:42.810Z,1.90
2019-02-05T15:54:12.444Z,1.90
2019-02-05T15:56:42.080Z,1.90
2019-02-05T15:59:12.009Z,1.90
2019-02-05T16:01:41.926Z,1.80
2019-02-05T16:04:11.568Z,1.80
2019-02-05T16:06:41.289Z,1.70
2019-02-05T16:09:11.146Z,1.70
2019-02-05T16:11:40.785Z,1.70
2019-02-05T16:14:10.636Z,1.60
2019-02-05T16:16:40.561Z,1.60
2019-02-05T16:19:10.203Z,1.60
2019-02-05T16:21:39.870Z,1.60
2019-02-05T16:24:09.582Z,1.60
2019-02-05T16:26:40.111Z,1.60
2019-02-05T16:29:09.741Z,1.60
2019-02-05T16:31:39.471Z,1.60
2019-02-05T16:34:09.142Z,1.60
2019-02-05T16:36:38.816Z,1.60
2019-02-05T16:39:09.585Z,1.60
2019-02-05T16:41:39.435Z,1.60
2019-02-05T16:44:10.099Z,1.60
2019-02-05T16:46:39.738Z,1.60
2019-02-05T16:49:09.380Z,1.60
2019-02-05T16:51:39.139Z,1.60
2019-02-05T16:54:08.777Z,1.50
2019-02-05T16:56:38.873Z,1.50
2019-02-05T16:59:09.240Z,1.50
2019-02-05T17:01:39.029Z,1.50
2019-02-05T17:04:09.066Z,1.50
2019-02-05T17:06:38.704Z,1.40
2019-02-05T17:09:11.701Z,1.50
2019-02-05T17:11:41.529Z,1.40
2019-02-05T17:14:12.169Z,1.50
2019-02-05T17:16:41.810Z,1.50
2019-02-05T17:19:11.504Z,1.50
2019-02-05T17:21:41.221Z,1.50
2019-02-05T17:24:10.869Z,1.50
2019-02-05T17:26:40.518Z,1.50
2019-02-05T17:29:10.838Z,1.50
2019-02-05T17:31:40.472Z,1.60
2019-02-05T17:34:10.117Z,1.60
2019-02-05T17:36:39.746Z,1.50
2019-02-05T17:39:11.206Z,1.60
2019-02-05T17:41:40.862Z,1.60
2019-02-05T17:44:10.492Z,1.60
2019-02-05T17:49:06.014Z,1.50
2019-02-05T17:51:35.690Z,1.50
2019-02-05T17:54:05.284Z,1.50
2019-02-05T17:56:35.083Z,1.50
2019-02-05T17:59:04.713Z,1.50
2019-02-05T18:01:34.461Z,1.40
2019-02-05T18:04:05.207Z,1.40
2019-02-05T18:06:34.928Z,1.40
2019-02-05T18:09:06.962Z,1.30
2019-02-05T18:11:36.554Z,1.30
2019-02-05T18:14:06.136Z,1.30
2019-02-05T18:16:35.833Z,1.20
2019-02-05T18:19:05.430Z,1.20
2019-02-05T18:21:35.153Z,1.20
2019-02-05T18:24:05.125Z,1.10
2019-02-05T18:26:34.998Z,1.20
2019-02-05T18:29:04.683Z,1.10
2019-02-05T18:31:34.270Z,1.10
2019-02-05T18:34:04.094Z,1.10
2019-02-05T18:36:33.793Z,1.10
2019-02-05T18:39:05.193Z,1.10
2019-02-05T18:41:35.883Z,1.10
2019-02-05T18:44:05.477Z,1.00
2019-02-05T18:46:35.074Z,1.00
2019-02-05T18:49:06.957Z,0.90
2019-02-05T18:51:36.073Z,0.90
2019-02-05T18:54:05.713Z,0.90
2019-02-05T18:56:35.351Z,0.90
2019-02-05T18:59:04.978Z,0.90
2019-02-05T19:01:34.759Z,0.80
2019-02-05T19:04:04.418Z,0.80
2019-02-05T19:06:34.318Z,0.70
2019-02-05T19:09:05.395Z,0.70
2019-02-05T19:11:34.996Z,0.60
2019-02-05T19:14:04.576Z,0.60
2019-02-05T19:16:35.006Z,0.50
2019-02-05T19:19:14.689Z,0.50
2019-02-05T19:21:35.941Z,0.40
2019-02-05T19:24:07.381Z,0.40
2019-02-05T19:26:37.875Z,0.30
2019-02-05T19:29:18.198Z,0.30
2019-02-05T19:31:39.048Z,0.20
2019-02-05T19:34:09.009Z,0.20
2019-02-05T19:36:38.596Z,0.10
2019-02-05T19:39:08.505Z,0.10
2019-02-05T19:41:38.169Z,0.00
2019-02-05T19:44:08.670Z,0.00
2019-02-05T19:46:41.373Z,-0.10
2019-02-05T19:49:21.552Z,-0.10
2019-02-05T19:51:44.108Z,-0.20
2019-02-05T19:54:14.054Z,-0.20
2019-02-05T19:56:43.702Z,-0.20
2019-02-05T19:59:13.661Z,-0.20
2019-02-05T20:01:43.256Z,-0.20
2019-02-05T20:04:12.905Z,-0.10
2019-02-05T20:06:42.830Z,-0.10
2019-02-05T20:09:12.824Z,-0.10
2019-02-05T20:11:42.471Z,0.00
2019-02-05T20:14:12.111Z,0.00
2019-02-05T20:16:41.707Z,0.10
2019-02-05T20:19:11.292Z,0.10
2019-02-05T20:21:41.338Z,0.20
2019-02-05T20:24:10.941Z,0.20
2019-02-05T20:26:40.639Z,0.20
2019-02-05T20:29:10.339Z,0.20
2019-02-05T20:31:39.985Z,0.30
2019-02-05T20:34:09.701Z,0.30
2019-02-05T20:36:39.377Z,0.30
2019-02-05T20:39:11.713Z,0.40
2019-02-05T20:41:41.544Z,0.40
2019-02-05T20:44:11.368Z,0.40
2019-02-05T20:46:41.008Z,0.40
2019-02-05T20:49:10.878Z,0.50
2019-02-05T20:51:40.677Z,0.50
2019-02-05T20:54:11.081Z,0.50
2019-02-05T20:56:40.721Z,0.50
2019-02-05T20:59:10.361Z,0.50
2019-02-05T21:01:39.994Z,0.50
2019-02-05T21:04:09.637Z,0.50
2019-02-05T21:06:39.299Z,0.50
2019-02-05T21:09:14.692Z,0.50
2019-02-05T21:11:44.422Z,0.50
2019-02-05T21:14:14.046Z,0.50
2019-02-05T21:16:43.809Z,0.50
2019-02-05T21:19:13.516Z,0.50
2019-02-05T21:21:43.150Z,0.50
2019-02-05T21:24:12.918Z,0.50
2019-02-05T21:26:42.524Z,0.50
2019-02-05T21:29:12.161Z,0.60
2019-02-05T21:31:42.064Z,0.60
2019-02-05T21:34:15.964Z,0.60
2019-02-05T21:36:43.141Z,0.60
2019-02-05T21:39:13.047Z,0.60
2019-02-05T21:41:42.642Z,0.60
2019-02-05T21:44:12.358Z,0.60
2019-02-05T21:46:41.999Z,0.60
2019-02-05T21:49:12.307Z,0.60
2019-02-05T21:51:43.504Z,0.60
2019-02-05T21:54:13.473Z,0.60
2019-02-05T21:56:43.073Z,0.60
2019-02-05T21:59:12.786Z,0.60
2019-02-05T22:01:42.555Z,0.60
2019-02-05T22:04:12.265Z,0.60
2019-02-05T22:06:42.039Z,0.50
2019-02-05T22:09:12.456Z,0.50
2019-02-05T22:11:42.124Z,0.50
2019-02-05T22:14:11.719Z,0.50
2019-02-05T22:16:41.318Z,0.50
2019-02-05T22:19:11.385Z,0.50
2019-02-05T22:21:41.937Z,0.50
2019-02-05T22:24:11.636Z,0.50
2019-02-05T22:26:41.365Z,0.50
2019-02-05T22:29:11.228Z,0.50
2019-02-05T22:31:40.829Z,0.50
2019-02-05T22:34:10.818Z,0.50
2019-02-05T22:36:40.545Z,0.50
2019-02-05T22:39:10.242Z,0.50
2019-02-05T22:41:40.114Z,0.50
2019-02-05T22:44:09.896Z,0.50
2019-02-05T22:46:40.861Z,0.50
2019-02-05T22:49:10.505Z,0.50
2019-02-05T22:51:40.137Z,0.50
2019-02-05T22:54:09.824Z,0.50
2019-02-05T22:56:39.440Z,0.60
2019-02-05T22:59:09.394Z,0.60
2019-02-05T23:01:41.618Z,0.60
2019-02-05T23:04:12.616Z,0.60
2019-02-05T23:06:51.509Z,0.60
2019-02-05T23:09:24.362Z,0.70
2019-02-05T23:12:17.941Z,0.70
2019-02-05T23:14:55.033Z,0.70
2019-02-05T23:17:24.697Z,0.70
2019-02-05T23:19:55.033Z,0.70
2019-02-05T23:22:24.748Z,0.70
2019-02-05T23:24:54.345Z,0.70
2019-02-05T23:27:24.326Z,0.70
2019-02-05T23:29:54.117Z,0.70
2019-02-05T23:32:23.976Z,0.70
2019-02-05T23:35:02.002Z,0.70
2019-02-05T23:37:25.055Z,0.70
2019-02-05T23:39:54.693Z,0.70
2019-02-05T23:42:24.609Z,0.80
2019-02-05T23:44:54.238Z,0.80
2019-02-05T23:47:23.875Z,0.80
2019-02-05T23:49:53.593Z,0.90
2019-02-05T23:52:23.350Z,0.90
2019-02-05T23:54:53.698Z,0.90
2019-02-05T23:57:23.454Z,0.90
2019-02-05T23:59:53.173Z,0.90
